sensor_id;sensor_type;location;lat;lon;timestamp;temperature;humidity
38500;DHT22;24269;51.894;4.622;2023-11-18T00:01:45;7.10;99.90
38500;DHT22;24269;51.894;4.622;2023-11-18T00:04:10;7.10;99.90
38500;DHT22;24269;51.894;4.622;2023-11-18T00:06:44;7.10;99.90
38500;DHT22;24269;51.894;4.622;2023-11-18T00:09:13;7.10;99.90
38500;DHT22;24269;51.894;4.622;2023-11-18T00:11:40;7.10;99.90
38500;DHT22;24269;51.894;4.622;2023-11-18T00:14:06;7.10;99.90
38500;DHT22;24269;51.894;4.622;2023-11-18T00:16:32;7.10;99.90
38500;DHT22;24269;51.894;4.622;2023-11-18T00:18:57;7.10;99.90
38500;DHT22;24269;51.894;4.622;2023-11-18T00:21:27;7.10;99.90
38500;DHT22;24269;51.894;4.622;2023-11-18T00:23:53;7.00;99.90
38500;DHT22;24269;51.894;4.622;2023-11-18T00:26:21;7.10;99.90
38500;DHT22;24269;51.894;4.622;2023-11-18T00:28:47;7.00;99.90
38500;DHT22;24269;51.894;4.622;2023-11-18T00:31:14;7.00;99.90
38500;DHT22;24269;51.894;4.622;2023-11-18T00:33:39;7.00;99.90
38500;DHT22;24269;51.894;4.622;2023-11-18T00:36:06;7.00;99.90
38500;DHT22;24269;51.894;4.622;2023-11-18T00:38:32;6.90;99.90
38500;DHT22;24269;51.894;4.622;2023-11-18T00:40:57;7.00;99.90
38500;DHT22;24269;51.894;4.622;2023-11-18T00:43:23;7.00;99.90
38500;DHT22;24269;51.894;4.622;2023-11-18T00:45:49;6.90;99.90
38500;DHT22;24269;51.894;4.622;2023-11-18T00:48:14;6.90;99.90
38500;DHT22;24269;51.894;4.622;2023-11-18T00:50:40;6.90;99.90
38500;DHT22;24269;51.894;4.622;2023-11-18T00:53:06;7.00;99.90
38500;DHT22;24269;51.894;4.622;2023-11-18T00:55:31;7.00;99.90
38500;DHT22;24269;51.894;4.622;2023-11-18T00:57:57;7.00;99.90
38500;DHT22;24269;51.894;4.622;2023-11-18T01:00:24;7.00;99.90
38500;DHT22;24269;51.894;4.622;2023-11-18T01:02:53;7.00;99.90
38500;DHT22;24269;51.894;4.622;2023-11-18T01:05:20;7.00;99.90
38500;DHT22;24269;51.894;4.622;2023-11-18T01:07:46;7.10;99.90
38500;DHT22;24269;51.894;4.622;2023-11-18T01:10:12;7.10;99.90
38500;DHT22;24269;51.894;4.622;2023-11-18T01:12:42;7.10;99.90
38500;DHT22;24269;51.894;4.622;2023-11-18T01:15:10;7.10;99.90
38500;DHT22;24269;51.894;4.622;2023-11-18T01:17:36;7.10;99.90
38500;DHT22;24269;51.894;4.622;2023-11-18T01:20:02;7.10;99.90
38500;DHT22;24269;51.894;4.622;2023-11-18T01:22:33;7.10;99.90
38500;DHT22;24269;51.894;4.622;2023-11-18T01:25:00;7.10;99.90
38500;DHT22;24269;51.894;4.622;2023-11-18T01:27:26;7.20;99.90
38500;DHT22;24269;51.894;4.622;2023-11-18T01:29:52;7.20;99.90
38500;DHT22;24269;51.894;4.622;2023-11-18T01:32:18;7.20;99.90
38500;DHT22;24269;51.894;4.622;2023-11-18T01:34:44;7.20;99.90
38500;DHT22;24269;51.894;4.622;2023-11-18T01:37:18;7.20;99.90
38500;DHT22;24269;51.894;4.622;2023-11-18T01:39:46;7.20;99.90
38500;DHT22;24269;51.894;4.622;2023-11-18T01:42:12;7.20;99.90
38500;DHT22;24269;51.894;4.622;2023-11-18T01:44:38;7.20;99.90
38500;DHT22;24269;51.894;4.622;2023-11-18T01:47:04;7.20;99.90
38500;DHT22;24269;51.894;4.622;2023-11-18T01:49:37;7.20;99.90
38500;DHT22;24269;51.894;4.622;2023-11-18T01:52:08;7.20;99.90
38500;DHT22;24269;51.894;4.622;2023-11-18T01:54:36;7.30;99.90
38500;DHT22;24269;51.894;4.622;2023-11-18T01:57:03;7.30;99.90
38500;DHT22;24269;51.894;4.622;2023-11-18T01:59:32;7.30;99.90
38500;DHT22;24269;51.894;4.622;2023-11-18T02:01:59;7.30;99.90
38500;DHT22;24269;51.894;4.622;2023-11-18T02:04:25;7.40;99.90
38500;DHT22;24269;51.894;4.622;2023-11-18T02:06:52;7.40;99.90
38500;DHT22;24269;51.894;4.622;2023-11-18T02:09:21;7.40;99.90
38500;DHT22;24269;51.894;4.622;2023-11-18T02:14:43;7.30;99.90
38500;DHT22;24269;51.894;4.622;2023-11-18T02:17:13;7.30;99.90
38500;DHT22;24269;51.894;4.622;2023-11-18T02:19:40;7.30;99.90
38500;DHT22;24269;51.894;4.622;2023-11-18T02:22:06;7.30;99.90
38500;DHT22;24269;51.894;4.622;2023-11-18T02:24:33;7.30;99.90
38500;DHT22;24269;51.894;4.622;2023-11-18T02:27:03;7.30;99.90
38500;DHT22;24269;51.894;4.622;2023-11-18T02:29:34;7.30;99.90
38500;DHT22;24269;51.894;4.622;2023-11-18T02:32:20;7.30;99.90
38500;DHT22;24269;51.894;4.622;2023-11-18T02:35:05;7.20;99.90
38500;DHT22;24269;51.894;4.622;2023-11-18T02:37:39;7.20;99.90
38500;DHT22;24269;51.894;4.622;2023-11-18T02:40:07;7.20;99.90
38500;DHT22;24269;51.894;4.622;2023-11-18T02:42:36;7.20;99.90
38500;DHT22;24269;51.894;4.622;2023-11-18T02:45:04;7.20;99.90
38500;DHT22;24269;51.894;4.622;2023-11-18T02:47:32;7.20;99.90
38500;DHT22;24269;51.894;4.622;2023-11-18T02:49:58;7.20;99.90
38500;DHT22;24269;51.894;4.622;2023-11-18T02:52:32;7.30;99.90
38500;DHT22;24269;51.894;4.622;2023-11-18T02:55:00;7.30;99.90
38500;DHT22;24269;51.894;4.622;2023-11-18T02:57:26;7.30;99.90
38500;DHT22;24269;51.894;4.622;2023-11-18T02:59:51;7.30;99.90
38500;DHT22;24269;51.894;4.622;2023-11-18T03:02:17;7.30;99.90
38500;DHT22;24269;51.894;4.622;2023-11-18T03:04:46;7.20;99.90
38500;DHT22;24269;51.894;4.622;2023-11-18T03:07:12;7.20;99.90
38500;DHT22;24269;51.894;4.622;2023-11-18T03:09:37;7.20;99.90
38500;DHT22;24269;51.894;4.622;2023-11-18T03:12:06;7.20;99.90
38500;DHT22;24269;51.894;4.622;2023-11-18T03:14:33;7.20;99.90
38500;DHT22;24269;51.894;4.622;2023-11-18T03:17:01;7.20;99.90
38500;DHT22;24269;51.894;4.622;2023-11-18T03:19:26;7.10;99.90
38500;DHT22;24269;51.894;4.622;2023-11-18T03:21:52;7.10;99.90
38500;DHT22;24269;51.894;4.622;2023-11-18T03:24:21;7.10;99.90
38500;DHT22;24269;51.894;4.622;2023-11-18T03:26:46;7.20;99.90
38500;DHT22;24269;51.894;4.622;2023-11-18T03:29:12;7.10;99.90
38500;DHT22;24269;51.894;4.622;2023-11-18T03:31:38;7.20;99.90
38500;DHT22;24269;51.894;4.622;2023-11-18T03:34:04;7.10;99.90
38500;DHT22;24269;51.894;4.622;2023-11-18T03:36:30;7.10;99.90
38500;DHT22;24269;51.894;4.622;2023-11-18T03:38:55;7.10;99.90
38500;DHT22;24269;51.894;4.622;2023-11-18T03:41:21;7.10;99.90
38500;DHT22;24269;51.894;4.622;2023-11-18T03:43:49;7.20;99.90
38500;DHT22;24269;51.894;4.622;2023-11-18T03:46:14;7.20;99.90
38500;DHT22;24269;51.894;4.622;2023-11-18T03:48:41;7.20;99.90
38500;DHT22;24269;51.894;4.622;2023-11-18T03:51:09;7.20;99.90
38500;DHT22;24269;51.894;4.622;2023-11-18T03:53:35;7.20;99.90
38500;DHT22;24269;51.894;4.622;2023-11-18T03:56:01;7.20;99.90
38500;DHT22;24269;51.894;4.622;2023-11-18T03:58:28;7.20;99.90
38500;DHT22;24269;51.894;4.622;2023-11-18T04:00:53;7.20;99.90
38500;DHT22;24269;51.894;4.622;2023-11-18T04:03:19;7.20;99.90
38500;DHT22;24269;51.894;4.622;2023-11-18T04:05:45;7.20;99.90
38500;DHT22;24269;51.894;4.622;2023-11-18T04:08:10;7.20;99.90
38500;DHT22;24269;51.894;4.622;2023-11-18T04:10:37;7.30;99.90
38500;DHT22;24269;51.894;4.622;2023-11-18T04:13:02;7.20;99.90
38500;DHT22;24269;51.894;4.622;2023-11-18T04:15:28;7.30;99.90
38500;DHT22;24269;51.894;4.622;2023-11-18T04:17:54;7.30;99.90
38500;DHT22;24269;51.894;4.622;2023-11-18T04:20:19;7.20;99.90
38500;DHT22;24269;51.894;4.622;2023-11-18T04:22:45;7.20;99.90
38500;DHT22;24269;51.894;4.622;2023-11-18T04:25:12;7.30;99.90
38500;DHT22;24269;51.894;4.622;2023-11-18T04:27:38;7.30;99.90
38500;DHT22;24269;51.894;4.622;2023-11-18T04:30:04;7.30;99.90
38500;DHT22;24269;51.894;4.622;2023-11-18T04:32:30;7.20;99.90
38500;DHT22;24269;51.894;4.622;2023-11-18T04:34:59;7.30;99.90
38500;DHT22;24269;51.894;4.622;2023-11-18T04:37:35;7.30;99.90
38500;DHT22;24269;51.894;4.622;2023-11-18T04:40:05;7.30;99.90
38500;DHT22;24269;51.894;4.622;2023-11-18T04:42:31;7.30;99.90
38500;DHT22;24269;51.894;4.622;2023-11-18T04:44:57;7.30;99.90
38500;DHT22;24269;51.894;4.622;2023-11-18T04:47:23;7.20;99.90
38500;DHT22;24269;51.894;4.622;2023-11-18T04:49:51;7.30;99.90
38500;DHT22;24269;51.894;4.622;2023-11-18T04:52:17;7.30;99.90
38500;DHT22;24269;51.894;4.622;2023-11-18T04:54:43;7.30;99.90
38500;DHT22;24269;51.894;4.622;2023-11-18T04:57:09;7.30;99.90
38500;DHT22;24269;51.894;4.622;2023-11-18T04:59:35;7.40;99.90
38500;DHT22;24269;51.894;4.622;2023-11-18T05:02:01;7.40;99.90
38500;DHT22;24269;51.894;4.622;2023-11-18T05:04:28;7.40;99.90
38500;DHT22;24269;51.894;4.622;2023-11-18T05:06:53;7.40;99.90
38500;DHT22;24269;51.894;4.622;2023-11-18T05:09:19;7.30;99.90
38500;DHT22;24269;51.894;4.622;2023-11-18T05:11:45;7.40;99.90
38500;DHT22;24269;51.894;4.622;2023-11-18T05:14:10;7.30;99.90
38500;DHT22;24269;51.894;4.622;2023-11-18T05:16:36;7.30;99.90
38500;DHT22;24269;51.894;4.622;2023-11-18T05:19:02;7.40;99.90
38500;DHT22;24269;51.894;4.622;2023-11-18T05:21:28;7.30;99.90
38500;DHT22;24269;51.894;4.622;2023-11-18T05:23:54;7.30;99.90
38500;DHT22;24269;51.894;4.622;2023-11-18T05:26:20;7.30;99.90
38500;DHT22;24269;51.894;4.622;2023-11-18T05:28:46;7.30;99.90
38500;DHT22;24269;51.894;4.622;2023-11-18T05:31:11;7.40;99.90
38500;DHT22;24269;51.894;4.622;2023-11-18T05:33:37;7.40;99.90
38500;DHT22;24269;51.894;4.622;2023-11-18T05:36:03;7.40;99.90
38500;DHT22;24269;51.894;4.622;2023-11-18T05:38:30;7.40;99.90
38500;DHT22;24269;51.894;4.622;2023-11-18T05:41:00;7.40;99.90
38500;DHT22;24269;51.894;4.622;2023-11-18T05:43:32;7.40;99.90
38500;DHT22;24269;51.894;4.622;2023-11-18T05:46:08;7.40;99.90
38500;DHT22;24269;51.894;4.622;2023-11-18T05:48:44;7.40;99.90
38500;DHT22;24269;51.894;4.622;2023-11-18T05:51:10;7.40;99.90
38500;DHT22;24269;51.894;4.622;2023-11-18T05:53:40;7.40;99.90
38500;DHT22;24269;51.894;4.622;2023-11-18T05:56:07;7.30;99.90
38500;DHT22;24269;51.894;4.622;2023-11-18T05:58:33;7.40;99.90
38500;DHT22;24269;51.894;4.622;2023-11-18T06:00:58;7.40;99.90
38500;DHT22;24269;51.894;4.622;2023-11-18T06:03:25;7.40;99.90
38500;DHT22;24269;51.894;4.622;2023-11-18T06:05:51;7.40;99.90
38500;DHT22;24269;51.894;4.622;2023-11-18T06:08:17;7.40;99.90
38500;DHT22;24269;51.894;4.622;2023-11-18T06:10:43;7.40;99.90
38500;DHT22;24269;51.894;4.622;2023-11-18T06:13:10;7.50;99.90
38500;DHT22;24269;51.894;4.622;2023-11-18T06:15:39;7.40;99.90
38500;DHT22;24269;51.894;4.622;2023-11-18T06:18:05;7.40;99.90
38500;DHT22;24269;51.894;4.622;2023-11-18T06:20:33;7.50;99.90
38500;DHT22;24269;51.894;4.622;2023-11-18T06:23:00;7.50;99.90
38500;DHT22;24269;51.894;4.622;2023-11-18T06:25:26;7.50;99.90
38500;DHT22;24269;51.894;4.622;2023-11-18T06:27:51;7.50;99.90
38500;DHT22;24269;51.894;4.622;2023-11-18T06:30:20;7.50;99.90
38500;DHT22;24269;51.894;4.622;2023-11-18T06:32:47;7.50;99.90
38500;DHT22;24269;51.894;4.622;2023-11-18T06:35:12;7.50;99.90
38500;DHT22;24269;51.894;4.622;2023-11-18T06:37:41;7.50;99.90
38500;DHT22;24269;51.894;4.622;2023-11-18T06:40:08;7.50;99.90
38500;DHT22;24269;51.894;4.622;2023-11-18T06:42:44;7.50;99.90
38500;DHT22;24269;51.894;4.622;2023-11-18T06:45:14;7.50;99.90
38500;DHT22;24269;51.894;4.622;2023-11-18T06:47:40;7.40;99.90
38500;DHT22;24269;51.894;4.622;2023-11-18T06:50:10;7.50;99.90
38500;DHT22;24269;51.894;4.622;2023-11-18T06:52:41;7.50;99.90
38500;DHT22;24269;51.894;4.622;2023-11-18T06:55:10;7.50;99.90
38500;DHT22;24269;51.894;4.622;2023-11-18T06:57:36;7.50;99.90
38500;DHT22;24269;51.894;4.622;2023-11-18T07:00:03;7.50;99.90
38500;DHT22;24269;51.894;4.622;2023-11-18T07:02:34;7.50;99.90
38500;DHT22;24269;51.894;4.622;2023-11-18T07:04:59;7.60;99.90
38500;DHT22;24269;51.894;4.622;2023-11-18T07:07:25;7.50;99.90
38500;DHT22;24269;51.894;4.622;2023-11-18T07:09:51;7.60;99.90
38500;DHT22;24269;51.894;4.622;2023-11-18T07:12:17;7.60;99.90
38500;DHT22;24269;51.894;4.622;2023-11-18T07:14:47;7.60;99.90
38500;DHT22;24269;51.894;4.622;2023-11-18T07:17:13;7.60;99.90
38500;DHT22;24269;51.894;4.622;2023-11-18T07:19:38;7.60;99.90
38500;DHT22;24269;51.894;4.622;2023-11-18T07:22:05;7.60;99.90
38500;DHT22;24269;51.894;4.622;2023-11-18T07:24:32;7.60;99.90
38500;DHT22;24269;51.894;4.622;2023-11-18T07:26:57;7.60;99.90
38500;DHT22;24269;51.894;4.622;2023-11-18T07:29:25;7.60;99.90
38500;DHT22;24269;51.894;4.622;2023-11-18T07:31:52;7.60;99.90
38500;DHT22;24269;51.894;4.622;2023-11-18T07:34:20;7.60;99.90
38500;DHT22;24269;51.894;4.622;2023-11-18T07:36:47;7.60;99.90
38500;DHT22;24269;51.894;4.622;2023-11-18T07:39:14;7.70;99.90
38500;DHT22;24269;51.894;4.622;2023-11-18T07:41:50;7.70;99.90
38500;DHT22;24269;51.894;4.622;2023-11-18T07:44:15;7.70;99.90
38500;DHT22;24269;51.894;4.622;2023-11-18T07:46:41;7.70;99.90
38500;DHT22;24269;51.894;4.622;2023-11-18T07:49:08;7.70;99.90
38500;DHT22;24269;51.894;4.622;2023-11-18T07:51:34;7.70;99.90
38500;DHT22;24269;51.894;4.622;2023-11-18T07:54:00;7.70;99.90
38500;DHT22;24269;51.894;4.622;2023-11-18T07:56:27;7.70;99.90
38500;DHT22;24269;51.894;4.622;2023-11-18T07:58:54;7.70;99.90
38500;DHT22;24269;51.894;4.622;2023-11-18T08:01:20;7.70;99.90
38500;DHT22;24269;51.894;4.622;2023-11-18T08:03:46;7.70;99.90
38500;DHT22;24269;51.894;4.622;2023-11-18T08:06:13;7.80;99.90
38500;DHT22;24269;51.894;4.622;2023-11-18T08:08:44;7.80;99.90
38500;DHT22;24269;51.894;4.622;2023-11-18T08:11:15;7.80;99.90
38500;DHT22;24269;51.894;4.622;2023-11-18T08:13:42;7.80;99.90
38500;DHT22;24269;51.894;4.622;2023-11-18T08:16:09;7.80;99.90
38500;DHT22;24269;51.894;4.622;2023-11-18T08:18:35;7.80;99.90
38500;DHT22;24269;51.894;4.622;2023-11-18T08:21:01;7.80;99.90
38500;DHT22;24269;51.894;4.622;2023-11-18T08:23:27;7.80;99.90
38500;DHT22;24269;51.894;4.622;2023-11-18T08:25:57;7.80;99.90
38500;DHT22;24269;51.894;4.622;2023-11-18T08:28:22;7.80;99.90
38500;DHT22;24269;51.894;4.622;2023-11-18T08:30:49;7.80;99.90
38500;DHT22;24269;51.894;4.622;2023-11-18T08:33:17;7.80;99.90
38500;DHT22;24269;51.894;4.622;2023-11-18T08:35:43;7.80;99.90
38500;DHT22;24269;51.894;4.622;2023-11-18T08:38:13;7.80;99.90
38500;DHT22;24269;51.894;4.622;2023-11-18T08:40:40;7.80;99.90
38500;DHT22;24269;51.894;4.622;2023-11-18T08:43:08;7.70;99.90
38500;DHT22;24269;51.894;4.622;2023-11-18T08:45:36;7.70;99.90
38500;DHT22;24269;51.894;4.622;2023-11-18T08:48:04;7.70;99.90
38500;DHT22;24269;51.894;4.622;2023-11-18T08:50:34;7.70;99.90
38500;DHT22;24269;51.894;4.622;2023-11-18T08:53:00;7.70;99.90
38500;DHT22;24269;51.894;4.622;2023-11-18T08:55:31;7.70;99.90
38500;DHT22;24269;51.894;4.622;2023-11-18T08:58:08;7.70;99.90
38500;DHT22;24269;51.894;4.622;2023-11-18T09:00:57;7.80;99.90
38500;DHT22;24269;51.894;4.622;2023-11-18T09:03:42;7.80;99.90
38500;DHT22;24269;51.894;4.622;2023-11-18T09:06:18;7.80;99.90
38500;DHT22;24269;51.894;4.622;2023-11-18T09:08:48;7.80;99.90
38500;DHT22;24269;51.894;4.622;2023-11-18T09:11:22;7.80;99.90
38500;DHT22;24269;51.894;4.622;2023-11-18T09:13:50;7.80;99.90
38500;DHT22;24269;51.894;4.622;2023-11-18T09:16:27;7.90;99.90
38500;DHT22;24269;51.894;4.622;2023-11-18T09:19:03;7.90;99.90
38500;DHT22;24269;51.894;4.622;2023-11-18T09:21:32;8.00;99.90
38500;DHT22;24269;51.894;4.622;2023-11-18T09:24:05;8.00;99.90
38500;DHT22;24269;51.894;4.622;2023-11-18T09:26:33;8.00;99.90
38500;DHT22;24269;51.894;4.622;2023-11-18T09:29:00;8.00;99.90
38500;DHT22;24269;51.894;4.622;2023-11-18T09:31:29;8.10;99.90
38500;DHT22;24269;51.894;4.622;2023-11-18T09:33:56;8.10;99.90
38500;DHT22;24269;51.894;4.622;2023-11-18T09:36:26;8.10;99.90
38500;DHT22;24269;51.894;4.622;2023-11-18T09:38:54;8.20;99.90
38500;DHT22;24269;51.894;4.622;2023-11-18T09:41:23;8.20;99.90
38500;DHT22;24269;51.894;4.622;2023-11-18T09:43:55;8.30;99.90
38500;DHT22;24269;51.894;4.622;2023-11-18T09:46:33;8.30;99.90
38500;DHT22;24269;51.894;4.622;2023-11-18T09:49:06;8.20;99.90
38500;DHT22;24269;51.894;4.622;2023-11-18T09:51:42;8.20;99.90
38500;DHT22;24269;51.894;4.622;2023-11-18T09:54:23;8.30;99.90
38500;DHT22;24269;51.894;4.622;2023-11-18T09:57:23;8.30;99.90
38500;DHT22;24269;51.894;4.622;2023-11-18T10:00:20;8.30;99.90
38500;DHT22;24269;51.894;4.622;2023-11-18T10:02:48;8.30;99.90
38500;DHT22;24269;51.894;4.622;2023-11-18T10:05:16;8.30;99.90
38500;DHT22;24269;51.894;4.622;2023-11-18T10:07:47;8.30;99.90
38500;DHT22;24269;51.894;4.622;2023-11-18T10:10:13;8.40;99.90
38500;DHT22;24269;51.894;4.622;2023-11-18T10:12:46;8.40;99.90
38500;DHT22;24269;51.894;4.622;2023-11-18T10:15:18;8.40;99.90
38500;DHT22;24269;51.894;4.622;2023-11-18T10:17:45;8.40;99.90
38500;DHT22;24269;51.894;4.622;2023-11-18T10:20:53;8.50;99.90
38500;DHT22;24269;51.894;4.622;2023-11-18T10:23:21;8.50;99.90
38500;DHT22;24269;51.894;4.622;2023-11-18T10:25:47;8.50;99.90
38500;DHT22;24269;51.894;4.622;2023-11-18T10:28:23;8.50;99.90
38500;DHT22;24269;51.894;4.622;2023-11-18T10:30:50;8.50;99.90
38500;DHT22;24269;51.894;4.622;2023-11-18T10:33:17;8.50;99.90
38500;DHT22;24269;51.894;4.622;2023-11-18T10:35:52;8.50;99.90
38500;DHT22;24269;51.894;4.622;2023-11-18T10:38:21;8.50;99.90
38500;DHT22;24269;51.894;4.622;2023-11-18T10:40:54;8.50;99.90
38500;DHT22;24269;51.894;4.622;2023-11-18T10:43:21;8.50;99.90
38500;DHT22;24269;51.894;4.622;2023-11-18T10:46:04;8.50;99.90
38500;DHT22;24269;51.894;4.622;2023-11-18T10:48:30;8.50;99.90
38500;DHT22;24269;51.894;4.622;2023-11-18T10:50:59;8.60;99.90
38500;DHT22;24269;51.894;4.622;2023-11-18T10:53:26;8.60;99.90
38500;DHT22;24269;51.894;4.622;2023-11-18T10:55:53;8.60;99.90
38500;DHT22;24269;51.894;4.622;2023-11-18T10:58:20;8.50;99.90
38500;DHT22;24269;51.894;4.622;2023-11-18T11:00:47;8.50;99.90
38500;DHT22;24269;51.894;4.622;2023-11-18T11:03:17;8.60;99.90
38500;DHT22;24269;51.894;4.622;2023-11-18T11:05:44;8.60;99.90
38500;DHT22;24269;51.894;4.622;2023-11-18T11:08:16;8.60;99.90
38500;DHT22;24269;51.894;4.622;2023-11-18T11:10:43;8.60;99.90
38500;DHT22;24269;51.894;4.622;2023-11-18T11:13:10;8.60;99.90
38500;DHT22;24269;51.894;4.622;2023-11-18T11:15:41;8.60;99.90
38500;DHT22;24269;51.894;4.622;2023-11-18T11:18:20;8.60;99.90
38500;DHT22;24269;51.894;4.622;2023-11-18T11:21:07;8.60;99.90
38500;DHT22;24269;51.894;4.622;2023-11-18T11:23:55;8.70;99.90
38500;DHT22;24269;51.894;4.622;2023-11-18T11:26:49;8.70;99.90
38500;DHT22;24269;51.894;4.622;2023-11-18T11:29:32;8.70;99.90
38500;DHT22;24269;51.894;4.622;2023-11-18T11:33:09;8.70;99.90
38500;DHT22;24269;51.894;4.622;2023-11-18T11:35:08;8.70;99.90
38500;DHT22;24269;51.894;4.622;2023-11-18T11:37:43;8.80;99.90
38500;DHT22;24269;51.894;4.622;2023-11-18T11:40:11;8.80;99.90
38500;DHT22;24269;51.894;4.622;2023-11-18T11:42:40;8.80;99.90
38500;DHT22;24269;51.894;4.622;2023-11-18T11:45:10;8.80;99.90
38500;DHT22;24269;51.894;4.622;2023-11-18T11:47:49;8.80;99.90
38500;DHT22;24269;51.894;4.622;2023-11-18T11:50:27;8.80;99.90
38500;DHT22;24269;51.894;4.622;2023-11-18T11:53:01;8.80;99.90
38500;DHT22;24269;51.894;4.622;2023-11-18T11:55:46;8.80;99.90
38500;DHT22;24269;51.894;4.622;2023-11-18T11:58:33;8.90;99.90
38500;DHT22;24269;51.894;4.622;2023-11-18T12:01:27;8.90;99.90
38500;DHT22;24269;51.894;4.622;2023-11-18T12:03:59;8.90;99.90
38500;DHT22;24269;51.894;4.622;2023-11-18T12:06:33;9.00;99.90
38500;DHT22;24269;51.894;4.622;2023-11-18T12:09:06;9.00;99.90
38500;DHT22;24269;51.894;4.622;2023-11-18T12:11:35;9.00;99.90
38500;DHT22;24269;51.894;4.622;2023-11-18T12:14:08;8.90;99.90
38500;DHT22;24269;51.894;4.622;2023-11-18T12:17:05;9.00;99.90
38500;DHT22;24269;51.894;4.622;2023-11-18T12:19:41;9.00;99.90
38500;DHT22;24269;51.894;4.622;2023-11-18T12:22:20;9.00;99.90
38500;DHT22;24269;51.894;4.622;2023-11-18T12:33:24;9.00;99.90
38500;DHT22;24269;51.894;4.622;2023-11-18T12:41:36;9.10;99.90
38500;DHT22;24269;51.894;4.622;2023-11-18T12:44:29;9.00;99.90
38500;DHT22;24269;51.894;4.622;2023-11-18T12:47:01;9.00;99.90
38500;DHT22;24269;51.894;4.622;2023-11-18T12:49:48;9.00;99.90
38500;DHT22;24269;51.894;4.622;2023-11-18T12:52:23;9.00;99.90
38500;DHT22;24269;51.894;4.622;2023-11-18T12:54:48;9.00;99.90
38500;DHT22;24269;51.894;4.622;2023-11-18T12:57:20;9.00;99.90
38500;DHT22;24269;51.894;4.622;2023-11-18T12:59:48;9.10;99.90
38500;DHT22;24269;51.894;4.622;2023-11-18T13:02:16;9.00;99.90
38500;DHT22;24269;51.894;4.622;2023-11-18T13:04:52;9.00;99.90
38500;DHT22;24269;51.894;4.622;2023-11-18T13:07:22;9.10;99.90
38500;DHT22;24269;51.894;4.622;2023-11-18T13:09:48;9.10;99.90
38500;DHT22;24269;51.894;4.622;2023-11-18T13:12:14;9.00;99.90
38500;DHT22;24269;51.894;4.622;2023-11-18T13:14:42;9.00;99.90
38500;DHT22;24269;51.894;4.622;2023-11-18T13:17:12;9.10;99.90
38500;DHT22;24269;51.894;4.622;2023-11-18T13:19:39;9.10;99.90
38500;DHT22;24269;51.894;4.622;2023-11-18T13:22:07;9.10;99.90
38500;DHT22;24269;51.894;4.622;2023-11-18T13:24:37;9.10;99.90
38500;DHT22;24269;51.894;4.622;2023-11-18T13:27:08;9.10;99.90
38500;DHT22;24269;51.894;4.622;2023-11-18T13:29:38;9.20;99.90
38500;DHT22;24269;51.894;4.622;2023-11-18T13:32:10;9.20;99.90
38500;DHT22;24269;51.894;4.622;2023-11-18T13:34:37;9.20;99.90
38500;DHT22;24269;51.894;4.622;2023-11-18T13:37:06;9.20;99.90
38500;DHT22;24269;51.894;4.622;2023-11-18T13:39:33;9.20;99.90
38500;DHT22;24269;51.894;4.622;2023-11-18T13:42:22;9.20;99.90
38500;DHT22;24269;51.894;4.622;2023-11-18T13:45:05;9.20;99.90
38500;DHT22;24269;51.894;4.622;2023-11-18T13:47:37;9.20;99.90
38500;DHT22;24269;51.894;4.622;2023-11-18T13:50:09;9.20;99.90
38500;DHT22;24269;51.894;4.622;2023-11-18T13:52:39;9.20;99.90
38500;DHT22;24269;51.894;4.622;2023-11-18T13:55:06;9.20;99.90
38500;DHT22;24269;51.894;4.622;2023-11-18T13:57:34;9.20;99.90
38500;DHT22;24269;51.894;4.622;2023-11-18T14:00:00;9.20;99.90
38500;DHT22;24269;51.894;4.622;2023-11-18T14:02:28;9.20;99.90
38500;DHT22;24269;51.894;4.622;2023-11-18T14:04:54;9.20;99.90
38500;DHT22;24269;51.894;4.622;2023-11-18T14:07:23;9.20;99.90
38500;DHT22;24269;51.894;4.622;2023-11-18T14:09:49;9.20;99.90
38500;DHT22;24269;51.894;4.622;2023-11-18T14:12:17;9.20;99.90
38500;DHT22;24269;51.894;4.622;2023-11-18T14:14:44;9.20;99.90
38500;DHT22;24269;51.894;4.622;2023-11-18T14:17:10;9.30;99.90
38500;DHT22;24269;51.894;4.622;2023-11-18T14:19:37;9.30;99.90
38500;DHT22;24269;51.894;4.622;2023-11-18T14:22:04;9.30;99.90
38500;DHT22;24269;51.894;4.622;2023-11-18T14:24:33;9.30;99.90
38500;DHT22;24269;51.894;4.622;2023-11-18T14:27:01;9.30;99.90
38500;DHT22;24269;51.894;4.622;2023-11-18T14:29:27;9.40;99.90
38500;DHT22;24269;51.894;4.622;2023-11-18T14:31:53;9.30;99.90
38500;DHT22;24269;51.894;4.622;2023-11-18T14:34:19;9.30;99.90
38500;DHT22;24269;51.894;4.622;2023-11-18T14:36:46;9.30;99.90
38500;DHT22;24269;51.894;4.622;2023-11-18T14:39:12;9.30;99.90
38500;DHT22;24269;51.894;4.622;2023-11-18T14:41:44;9.30;99.90
38500;DHT22;24269;51.894;4.622;2023-11-18T14:44:11;9.40;99.90
38500;DHT22;24269;51.894;4.622;2023-11-18T14:46:37;9.40;99.90
38500;DHT22;24269;51.894;4.622;2023-11-18T14:49:10;9.30;99.90
38500;DHT22;24269;51.894;4.622;2023-11-18T14:51:36;9.40;99.90
38500;DHT22;24269;51.894;4.622;2023-11-18T14:54:04;9.40;99.90
38500;DHT22;24269;51.894;4.622;2023-11-18T14:56:31;9.40;99.90
38500;DHT22;24269;51.894;4.622;2023-11-18T14:58:57;9.40;99.90
38500;DHT22;24269;51.894;4.622;2023-11-18T15:01:25;9.40;99.90
38500;DHT22;24269;51.894;4.622;2023-11-18T15:03:52;9.50;99.90
38500;DHT22;24269;51.894;4.622;2023-11-18T15:06:25;9.50;99.90
38500;DHT22;24269;51.894;4.622;2023-11-18T15:08:51;9.50;99.90
38500;DHT22;24269;51.894;4.622;2023-11-18T15:11:24;9.50;99.90
38500;DHT22;24269;51.894;4.622;2023-11-18T15:13:51;9.50;99.90
38500;DHT22;24269;51.894;4.622;2023-11-18T15:16:18;9.50;99.90
38500;DHT22;24269;51.894;4.622;2023-11-18T15:18:44;9.50;99.90
38500;DHT22;24269;51.894;4.622;2023-11-18T15:21:12;9.50;99.90
38500;DHT22;24269;51.894;4.622;2023-11-18T15:23:41;9.60;99.90
38500;DHT22;24269;51.894;4.622;2023-11-18T15:26:07;9.60;99.90
38500;DHT22;24269;51.894;4.622;2023-11-18T15:28:34;9.60;99.90
38500;DHT22;24269;51.894;4.622;2023-11-18T15:31:00;9.60;99.90
38500;DHT22;24269;51.894;4.622;2023-11-18T15:33:28;9.70;99.90
38500;DHT22;24269;51.894;4.622;2023-11-18T15:35:53;9.70;99.90
38500;DHT22;24269;51.894;4.622;2023-11-18T15:38:19;9.70;99.90
38500;DHT22;24269;51.894;4.622;2023-11-18T15:40:47;9.70;99.90
38500;DHT22;24269;51.894;4.622;2023-11-18T15:43:13;9.70;99.90
38500;DHT22;24269;51.894;4.622;2023-11-18T15:45:38;9.70;99.90
38500;DHT22;24269;51.894;4.622;2023-11-18T15:48:05;9.80;99.90
38500;DHT22;24269;51.894;4.622;2023-11-18T15:50:32;9.80;99.90
38500;DHT22;24269;51.894;4.622;2023-11-18T15:52:57;9.80;99.90
38500;DHT22;24269;51.894;4.622;2023-11-18T15:55:23;9.90;99.90
38500;DHT22;24269;51.894;4.622;2023-11-18T15:57:51;9.90;99.90
38500;DHT22;24269;51.894;4.622;2023-11-18T16:00:22;10.00;99.90
38500;DHT22;24269;51.894;4.622;2023-11-18T16:02:51;10.00;99.90
38500;DHT22;24269;51.894;4.622;2023-11-18T16:05:18;10.00;99.90
38500;DHT22;24269;51.894;4.622;2023-11-18T16:07:50;10.00;99.90
38500;DHT22;24269;51.894;4.622;2023-11-18T16:10:17;10.00;99.90
38500;DHT22;24269;51.894;4.622;2023-11-18T16:12:47;10.10;99.90
38500;DHT22;24269;51.894;4.622;2023-11-18T16:15:13;10.10;99.90